Time;durP1;ratioP1;P1;durP2;ratioP2;P2;SDS_P1;SDS_P2;PMS_P1;PMS_P2;Temp;Humidity;BMP_temperature;BMP_pressure;BME280_temperature;BME280_humidity;BME280_pressure;Samples;Min_cycle;Max_cycle;Signal;HPM_P1;HPM_P2
2022/11/08 00:02:27;;;;;;;6.80;2.40;;;13.90;84.00;;;;;;5018779;28;20205;-88
2022/11/08 00:04:54;;;;;;;7.50;2.13;;;13.90;84.10;;;;;;5017143;28;20612;-86
2022/11/08 00:15:37;;;;;;;4.67;2.20;;;14.00;82.80;;;;;;5017024;28;20680;-81
2022/11/08 00:18:06;;;;;;;6.53;1.93;;;14.00;82.60;;;;;;5019735;28;20162;-86
2022/11/08 00:20:32;;;;;;;5.27;1.70;;;14.00;82.10;;;;;;5019436;28;20174;-80
2022/11/08 00:22:58;;;;;;;5.07;1.73;;;14.00;82.40;;;;;;5028872;28;20177;-84
2022/11/08 00:25:24;;;;;;;8.20;2.30;;;14.00;81.50;;;;;;5023700;28;20257;-82
2022/11/08 00:27:49;;;;;;;5.50;1.80;;;14.00;82.20;;;;;;5022194;28;20194;-81
2022/11/08 00:30:15;;;;;;;7.13;1.83;;;14.00;80.40;;;;;;5025711;28;20209;-88
2022/11/08 00:32:41;;;;;;;5.97;2.40;;;14.00;79.00;;;;;;5019113;28;20232;-82
2022/11/08 00:35:07;;;;;;;7.80;2.17;;;14.10;78.20;;;;;;5015999;28;20210;-81
2022/11/08 00:37:33;;;;;;;6.37;1.80;;;14.10;77.30;;;;;;5016326;28;20249;-81
2022/11/08 00:39:58;;;;;;;6.40;1.70;;;14.00;76.90;;;;;;5017533;28;20563;-84
2022/11/08 00:42:24;;;;;;;5.03;2.40;;;14.00;77.10;;;;;;5019843;28;20155;-81
2022/11/08 00:44:50;;;;;;;9.13;2.10;;;14.00;76.90;;;;;;5017770;28;20639;-80
2022/11/08 00:47:16;;;;;;;5.87;1.87;;;14.00;75.80;;;;;;5019035;28;20179;-83
2022/11/08 00:49:41;;;;;;;5.63;2.03;;;14.00;75.80;;;;;;5016874;28;20174;-80
2022/11/08 00:52:07;;;;;;;5.73;2.00;;;14.00;77.10;;;;;;5018266;28;20199;-88
2022/11/08 00:54:33;;;;;;;4.70;1.90;;;14.00;76.70;;;;;;5020633;28;20639;-83
2022/11/08 00:56:58;;;;;;;4.03;1.67;;;14.00;77.20;;;;;;5019109;28;20220;-86
2022/11/08 00:59:24;;;;;;;5.30;1.90;;;14.00;77.60;;;;;;5018130;28;20179;-88
2022/11/08 01:01:50;;;;;;;7.33;2.30;;;14.00;77.60;;;;;;5020574;28;20167;-84
2022/11/08 01:04:17;;;;;;;6.13;2.00;;;14.00;77.40;;;;;;5022509;28;20174;-84
2022/11/08 01:06:43;;;;;;;4.37;1.90;;;14.00;77.80;;;;;;5034362;28;20182;-87
2022/11/08 01:09:09;;;;;;;5.80;2.20;;;14.00;77.50;;;;;;5034927;28;20205;-87
2022/11/08 01:11:36;;;;;;;6.70;2.10;;;14.00;78.60;;;;;;5035026;28;20237;-83
2022/11/08 01:14:03;;;;;;;5.53;1.97;;;14.00;78.60;;;;;;5033928;28;20159;-81
2022/11/08 01:16:31;;;;;;;5.73;2.07;;;13.90;78.50;;;;;;5037735;28;20223;-83
2022/11/08 01:18:58;;;;;;;7.67;1.83;;;13.90;80.10;;;;;;5034962;28;20159;-83
2022/11/08 01:21:25;;;;;;;6.40;2.20;;;13.90;79.90;;;;;;5035361;28;20270;-82
2022/11/08 01:23:53;;;;;;;6.57;2.23;;;14.00;79.30;;;;;;5034273;28;20177;-83
2022/11/08 01:26:22;;;;;;;4.17;2.20;;;13.90;79.60;;;;;;5023154;28;20170;-81
2022/11/08 01:28:51;;;;;;;7.07;2.20;;;13.90;79.30;;;;;;5018810;28;20185;-81
2022/11/08 01:31:24;;;;;;;6.97;2.10;;;13.90;80.30;;;;;;5019483;28;20212;-80
2022/11/08 01:33:56;;;;;;;5.50;1.97;;;13.70;82.10;;;;;;5033306;28;20208;-83
2022/11/08 01:36:24;;;;;;;8.57;2.00;;;13.70;83.60;;;;;;5033670;28;20174;-86
2022/11/08 01:38:54;;;;;;;7.07;2.27;;;13.70;84.10;;;;;;5019925;28;20229;-86
2022/11/08 01:41:32;;;;;;;5.50;1.97;;;13.60;86.00;;;;;;5018216;28;20162;-82
2022/11/08 01:44:04;;;;;;;6.20;1.90;;;13.60;86.80;;;;;;5017680;28;20166;-87
2022/11/08 01:46:43;;;;;;;5.53;2.27;;;13.60;86.30;;;;;;5015512;28;20180;-87
2022/11/08 01:49:28;;;;;;;8.53;2.70;;;13.60;86.80;;;;;;5015640;28;20180;-84
2022/11/08 01:52:23;;;;;;;6.13;1.83;;;13.70;85.30;;;;;;5014885;28;20202;-84
2022/11/08 01:54:57;;;;;;;6.23;2.30;;;13.70;84.00;;;;;;5016194;28;20178;-88
2022/11/08 01:57:30;;;;;;;5.87;2.03;;;13.60;83.10;;;;;;5016983;28;20197;-87
2022/11/08 01:59:59;;;;;;;6.50;2.20;;;13.60;84.80;;;;;;5015173;28;20155;-86
2022/11/08 02:02:26;;;;;;;5.83;2.17;;;13.60;85.50;;;;;;5015502;28;20173;-82
2022/11/08 02:04:53;;;;;;;6.17;2.03;;;13.70;85.90;;;;;;5015855;28;20166;-86
2022/11/08 02:07:19;;;;;;;5.93;2.13;;;13.60;85.70;;;;;;5016264;28;20206;-87
2022/11/08 02:09:47;;;;;;;5.10;2.20;;;13.70;84.00;;;;;;5015459;28;20169;-86
2022/11/08 02:12:14;;;;;;;9.80;2.47;;;13.50;83.80;;;;;;5016365;28;20281;-83
2022/11/08 02:14:40;;;;;;;7.40;2.17;;;13.40;84.70;;;;;;5018311;28;20170;-87
2022/11/08 02:17:06;;;;;;;6.30;2.20;;;13.50;84.60;;;;;;5018687;28;20181;-83
2022/11/08 02:19:43;;;;;;;5.57;2.23;;;13.40;84.60;;;;;;5021759;28;20545;-87
2022/11/08 02:22:24;;;;;;;6.13;2.17;;;13.40;82.80;;;;;;5022285;28;20200;-84
2022/11/08 02:24:51;;;;;;;6.40;1.90;;;13.40;83.60;;;;;;5027144;28;20172;-81
2022/11/08 02:27:17;;;;;;;3.70;1.90;;;13.30;83.10;;;;;;5023491;28;20182;-85
2022/11/08 02:29:42;;;;;;;8.53;2.10;;;13.30;83.50;;;;;;5028026;28;20366;-88
2022/11/08 02:32:10;;;;;;;6.50;2.30;;;13.30;84.80;;;;;;5031982;28;20191;-79
2022/11/08 02:34:46;;;;;;;5.40;2.10;;;13.30;86.00;;;;;;5033011;28;20170;-79
2022/11/08 02:37:16;;;;;;;4.23;2.00;;;13.20;85.50;;;;;;5037787;28;20173;-83
2022/11/08 02:39:53;;;;;;;5.43;1.83;;;13.30;85.70;;;;;;5038467;28;20151;-80
2022/11/08 02:42:22;;;;;;;6.83;1.90;;;13.20;86.30;;;;;;5031536;28;20174;-83
2022/11/08 02:44:51;;;;;;;7.70;2.23;;;13.20;86.90;;;;;;5023193;28;20162;-85
2022/11/08 02:47:20;;;;;;;5.77;2.20;;;13.10;86.80;;;;;;5019144;28;20236;-88
2022/11/08 02:49:45;;;;;;;5.70;2.17;;;13.20;85.40;;;;;;5019348;28;20170;-82
2022/11/08 02:52:11;;;;;;;6.47;2.10;;;13.10;85.90;;;;;;5021461;28;20512;-85
2022/11/08 02:54:37;;;;;;;3.83;1.93;;;13.10;84.30;;;;;;5023194;28;20220;-87
2022/11/08 02:57:03;;;;;;;3.77;2.27;;;13.10;84.50;;;;;;5032336;28;20202;-87
2022/11/08 02:59:29;;;;;;;7.13;2.43;;;13.10;83.00;;;;;;5032912;28;20590;-84
2022/11/08 03:01:55;;;;;;;6.23;1.90;;;13.10;82.60;;;;;;5027991;28;20237;-80
2022/11/08 03:04:21;;;;;;;4.43;2.20;;;13.20;81.80;;;;;;5026212;28;20181;-86
2022/11/08 03:06:46;;;;;;;4.87;2.10;;;13.20;79.30;;;;;;5024491;28;20191;-86
2022/11/08 03:09:12;;;;;;;4.03;2.30;;;13.10;78.20;;;;;;5017875;28;20672;-84
2022/11/08 03:11:41;;;;;;;6.80;2.17;;;13.00;78.30;;;;;;5015432;28;20247;-83
2022/11/08 03:14:25;;;;;;;4.70;2.00;;;13.10;76.70;;;;;;5019540;28;20191;-80
2022/11/08 03:16:51;;;;;;;5.40;1.93;;;13.30;71.80;;;;;;5024330;28;20169;-82
2022/11/08 03:19:16;;;;;;;4.23;1.90;;;13.20;70.90;;;;;;5020574;28;20177;-81
2022/11/08 03:21:42;;;;;;;4.50;1.87;;;13.30;68.50;;;;;;5016931;28;20174;-81
2022/11/08 03:24:10;;;;;;;5.27;1.90;;;13.30;64.70;;;;;;5018435;28;20633;-87
2022/11/08 03:26:36;;;;;;;4.47;2.00;;;13.30;61.80;;;;;;5016258;28;20158;-81
2022/11/08 03:29:02;;;;;;;4.37;1.93;;;13.50;61.90;;;;;;5019353;28;20180;-80
2022/11/08 03:31:28;;;;;;;5.13;1.80;;;13.30;58.30;;;;;;5020770;28;20225;-80
2022/11/08 03:33:53;;;;;;;3.20;1.77;;;13.40;56.30;;;;;;5019912;28;20172;-86
2022/11/08 03:36:19;;;;;;;3.30;1.67;;;13.60;54.70;;;;;;5019676;28;20605;-88
2022/11/08 03:38:44;;;;;;;5.73;1.90;;;13.40;52.60;;;;;;5022398;28;20568;-86
2022/11/08 03:41:10;;;;;;;4.33;1.60;;;13.30;52.90;;;;;;5037873;28;20190;-87
2022/11/08 03:43:36;;;;;;;3.73;1.77;;;13.30;52.30;;;;;;5037070;28;20244;-83
2022/11/08 03:46:03;;;;;;;4.77;2.00;;;13.30;52.60;;;;;;5037546;28;20194;-82
2022/11/08 03:48:32;;;;;;;4.67;1.77;;;13.30;50.80;;;;;;5031260;28;20170;-82
2022/11/08 03:51:01;;;;;;;6.20;2.30;;;13.40;49.00;;;;;;5023526;28;20202;-82
2022/11/08 03:54:02;;;;;;;4.30;1.90;;;13.20;49.20;;;;;;5020020;28;20351;-84
2022/11/08 03:56:28;;;;;;;4.00;1.60;;;13.20;50.40;;;;;;5019698;28;20254;-85
2022/11/08 03:58:53;;;;;;;7.00;1.80;;;13.40;48.30;;;;;;5016624;28;20185;-86
2022/11/08 04:01:19;;;;;;;3.73;1.50;;;13.30;46.50;;;;;;5016034;28;20609;-85
2022/11/08 04:03:45;;;;;;;4.13;1.50;;;13.30;45.00;;;;;;5016178;28;20602;-80
2022/11/08 04:06:10;;;;;;;4.23;1.50;;;13.30;44.30;;;;;;5017234;28;20213;-85
2022/11/08 04:08:36;;;;;;;3.53;1.47;;;13.30;44.50;;;;;;5016393;28;20623;-87
2022/11/08 04:16:42;;;;;;;4.33;1.60;;;13.10;45.60;;;;;;5020115;28;20703;-85
2022/11/08 04:21:53;;;;;;;4.03;1.57;;;13.00;46.60;;;;;;5017728;28;20224;-87
2022/11/08 04:24:19;;;;;;;5.07;1.77;;;13.00;45.40;;;;;;5015703;28;20182;-84
2022/11/08 04:26:45;;;;;;;4.87;1.60;;;13.00;44.60;;;;;;5016425;28;20173;-88
2022/11/08 04:29:12;;;;;;;3.83;1.37;;;13.00;43.50;;;;;;5016612;28;20178;-86
2022/11/08 04:31:38;;;;;;;4.33;1.80;;;12.90;43.90;;;;;;5016107;28;20279;-84
2022/11/08 04:34:03;;;;;;;6.07;1.80;;;13.00;43.10;;;;;;5015673;28;20309;-84
2022/11/08 04:36:29;;;;;;;3.07;1.50;;;12.90;43.30;;;;;;5016772;28;20654;-87
2022/11/08 04:38:55;;;;;;;2.67;1.40;;;12.90;42.90;;;;;;5015786;28;20182;-86
2022/11/08 04:41:22;;;;;;;3.93;1.40;;;12.90;43.40;;;;;;5017465;28;20631;-82
2022/11/08 04:43:52;;;;;;;3.40;1.40;;;12.90;42.20;;;;;;5016189;28;20521;-86
2022/11/08 04:46:21;;;;;;;3.23;1.47;;;12.90;41.90;;;;;;5017912;28;20174;-86
2022/11/08 04:48:49;;;;;;;4.43;2.07;;;12.80;41.90;;;;;;5018046;28;20175;-86
2022/11/08 04:51:26;;;;;;;3.47;1.47;;;12.90;41.50;;;;;;5000002;28;20210;-86
2022/11/08 04:53:53;;;;;;;3.07;1.70;;;12.80;41.20;;;;;;5017163;28;20202;-82
2022/11/08 04:56:20;;;;;;;5.80;1.70;;;12.80;40.80;;;;;;5017031;28;20250;-81
2022/11/08 04:58:48;;;;;;;4.03;1.77;;;12.90;40.20;;;;;;5016867;28;20697;-85
2022/11/08 05:01:16;;;;;;;3.53;1.90;;;12.80;40.50;;;;;;5015826;28;20178;-80
2022/11/08 05:03:41;;;;;;;2.53;1.63;;;12.80;39.60;;;;;;5014910;28;20215;-89
2022/11/08 05:06:11;;;;;;;5.67;1.80;;;12.80;38.90;;;;;;5015445;28;20211;-85
2022/11/08 05:08:37;;;;;;;3.37;1.80;;;12.80;39.10;;;;;;5016215;28;20544;-87
2022/11/08 05:11:09;;;;;;;5.00;2.07;;;12.80;39.10;;;;;;5018688;28;20680;-81
2022/11/08 05:13:35;;;;;;;3.67;1.77;;;12.70;38.00;;;;;;5018013;28;20204;-86
2022/11/08 05:16:10;;;;;;;4.77;1.87;;;12.80;37.40;;;;;;5019311;28;20178;-86
2022/11/08 05:18:36;;;;;;;4.43;1.87;;;12.80;37.00;;;;;;5017580;28;20173;-82
2022/11/08 05:23:48;;;;;;;5.00;1.83;;;12.90;35.80;;;;;;5020983;28;20289;-85
2022/11/08 05:26:15;;;;;;;3.13;1.90;;;13.00;33.70;;;;;;5017087;28;20202;-87
2022/11/08 05:28:42;;;;;;;5.77;1.70;;;12.90;33.30;;;;;;5014909;28;20244;-87
2022/11/08 05:31:08;;;;;;;2.90;1.97;;;13.10;33.50;;;;;;5015753;28;20278;-88
2022/11/08 05:33:34;;;;;;;6.90;2.23;;;13.00;31.20;;;;;;5014701;28;20179;-85
2022/11/08 05:36:07;;;;;;;3.30;1.73;;;13.00;30.10;;;;;;5014878;28;20197;-86
2022/11/08 05:38:33;;;;;;;4.47;1.70;;;13.00;29.40;;;;;;5026528;28;20185;-85
2022/11/08 05:41:09;;;;;;;3.80;1.77;;;13.20;24.20;;;;;;5033246;28;20181;-83
2022/11/08 05:43:35;;;;;;;4.50;1.67;;;13.10;24.90;;;;;;5022700;28;20170;-82
2022/11/08 05:46:01;;;;;;;4.50;1.70;;;13.20;25.50;;;;;;5020057;28;20181;-80
2022/11/08 05:48:27;;;;;;;7.30;1.63;;;13.00;27.10;;;;;;5017440;28;20536;-85
2022/11/08 05:50:54;;;;;;;2.53;1.67;;;13.10;25.70;;;;;;5016039;28;20202;-86
2022/11/08 05:53:21;;;;;;;3.57;2.07;;;13.00;26.50;;;;;;5015969;28;20178;-86
2022/11/08 05:55:47;;;;;;;5.43;2.37;;;13.00;27.00;;;;;;5016922;28;20276;-87
2022/11/08 05:58:12;;;;;;;3.90;1.60;;;12.90;25.80;;;;;;5014127;28;20201;-86
2022/11/08 06:00:38;;;;;;;5.70;1.60;;;13.00;26.30;;;;;;5014505;28;20257;-83
2022/11/08 06:03:05;;;;;;;5.57;1.70;;;12.90;25.80;;;;;;5013316;28;20542;-81
2022/11/08 06:05:32;;;;;;;3.23;1.60;;;13.10;25.20;;;;;;5013401;28;20181;-87
2022/11/08 06:07:58;;;;;;;3.53;1.77;;;13.10;23.70;;;;;;5017454;28;20557;-82
2022/11/08 06:10:23;;;;;;;3.40;1.63;;;13.10;23.90;;;;;;5016325;28;20206;-84
2022/11/08 06:12:49;;;;;;;4.70;1.83;;;13.10;22.20;;;;;;5013453;28;20174;-84
2022/11/08 06:15:15;;;;;;;4.67;1.73;;;13.10;23.30;;;;;;5016968;28;20579;-81
2022/11/08 06:17:40;;;;;;;3.37;1.63;;;13.10;21.00;;;;;;5035975;28;20159;-82
2022/11/08 06:20:08;;;;;;;2.90;1.63;;;13.10;21.50;;;;;;5036084;28;20181;-81
2022/11/08 06:22:35;;;;;;;2.40;1.40;;;13.10;21.20;;;;;;5032945;28;20185;-83
2022/11/08 06:25:00;;;;;;;4.37;1.47;;;13.00;21.50;;;;;;5025963;28;20200;-81
2022/11/08 06:27:29;;;;;;;3.67;1.60;;;13.00;21.20;;;;;;5019032;28;20253;-81
2022/11/08 06:29:55;;;;;;;4.23;1.80;;;13.00;20.90;;;;;;5017212;28;20650;-82
2022/11/08 06:32:26;;;;;;;7.47;2.43;;;13.10;20.80;;;;;;5032565;28;20189;-81
2022/11/08 06:35:03;;;;;;;4.30;1.83;;;13.10;20.40;;;;;;5036316;28;20201;-81
2022/11/08 06:37:28;;;;;;;4.10;1.97;;;13.10;18.80;;;;;;5037065;28;20188;-82
2022/11/08 06:39:54;;;;;;;3.67;1.63;;;13.10;18.60;;;;;;5030656;28;20188;-86
2022/11/08 06:42:23;;;;;;;4.17;1.60;;;13.10;17.90;;;;;;5023935;28;20181;-85
2022/11/08 06:45:06;;;;;;;3.37;1.50;;;13.10;18.00;;;;;;5014766;28;20177;-83
2022/11/08 06:47:32;;;;;;;5.73;1.53;;;13.10;16.80;;;;;;5018531;28;20615;-84
2022/11/08 06:49:57;;;;;;;2.33;1.73;;;13.20;16.60;;;;;;5013468;28;20251;-82
2022/11/08 06:52:23;;;;;;;5.17;1.70;;;13.10;16.70;;;;;;5014180;28;20178;-84
2022/11/08 06:54:49;;;;;;;4.10;1.83;;;13.10;16.40;;;;;;5012298;28;20185;-84
2022/11/08 06:57:14;;;;;;;3.43;1.80;;;13.10;16.70;;;;;;5012891;28;20255;-83
2022/11/08 06:59:42;;;;;;;5.87;1.80;;;13.20;16.20;;;;;;5014107;28;20185;-85
2022/11/08 07:02:09;;;;;;;4.00;1.90;;;13.20;15.50;;;;;;5017647;28;20254;-83
2022/11/08 07:04:35;;;;;;;3.57;1.50;;;13.20;15.00;;;;;;5015917;28;20178;-83
2022/11/08 07:07:01;;;;;;;4.53;1.83;;;13.20;13.40;;;;;;5013304;28;20187;-85
2022/11/08 07:09:26;;;;;;;2.97;1.50;;;13.20;12.70;;;;;;5015917;28;20173;-83
2022/11/08 07:11:52;;;;;;;4.83;1.70;;;13.30;13.10;;;;;;5013393;28;20225;-82
2022/11/08 07:14:18;;;;;;;3.83;2.00;;;13.40;12.50;;;;;;5014378;28;20256;-84
2022/11/08 07:16:45;;;;;;;5.30;1.87;;;13.30;11.40;;;;;;5015394;28;20181;-84
2022/11/08 07:19:12;;;;;;;4.80;2.10;;;13.50;8.30;;;;;;5001906;28;20182;-81
2022/11/08 07:21:38;;;;;;;4.40;1.90;;;13.50;6.00;;;;;;4999655;28;20214;-84
2022/11/08 07:24:04;;;;;;;5.17;2.17;;;13.40;7.10;;;;;;5018483;28;20525;-84
2022/11/08 07:26:31;;;;;;;3.83;1.90;;;13.30;7.10;;;;;;5021133;28;20174;-82
2022/11/08 07:28:56;;;;;;;6.30;1.83;;;13.50;6.40;;;;;;5019988;28;20175;-84
2022/11/08 07:31:23;;;;;;;4.27;1.90;;;13.40;5.80;;;;;;5018643;28;20216;-83
2022/11/08 07:33:49;;;;;;;4.40;1.63;;;13.50;5.60;;;;;;5019990;28;20162;-84
2022/11/08 07:36:15;;;;;;;3.50;1.97;;;13.40;5.30;;;;;;5018463;28;20241;-82
2022/11/08 07:38:40;;;;;;;3.77;2.17;;;13.50;5.30;;;;;;5020399;28;20189;-82
2022/11/08 07:41:07;;;;;;;6.43;1.93;;;13.40;4.20;;;;;;5020902;28;20178;-83
2022/11/08 07:43:34;;;;;;;3.47;1.90;;;13.40;5.00;;;;;;5020102;28;20164;-84
2022/11/08 07:46:01;;;;;;;5.60;2.43;;;13.40;5.60;;;;;;5022357;28;20182;-85
2022/11/08 07:48:29;;;;;;;5.43;2.20;;;13.40;5.10;;;;;;5024227;28;20226;-86
2022/11/08 07:50:55;;;;;;;3.77;1.87;;;13.50;4.40;;;;;;5019690;28;20734;-86
2022/11/08 07:53:22;;;;;;;5.60;2.00;;;13.50;4.00;;;;;;5019471;28;20177;-80
2022/11/08 07:55:48;;;;;;;4.73;1.80;;;13.50;4.00;;;;;;5020449;28;20194;-81
2022/11/08 07:58:15;;;;;;;3.73;1.67;;;13.70;2.80;;;;;;5017535;28;20189;-81
2022/11/08 08:00:44;;;;;;;4.97;1.97;;;13.70;1.80;;;;;;5019850;28;20209;-82
2022/11/08 08:03:12;;;;;;;5.73;2.17;;;13.70;1.00;;;;;;5017447;28;20186;-85
2022/11/08 08:05:41;;;;;;;7.57;2.37;;;13.80;1.00;;;;;;5033053;28;20669;-81
2022/11/08 08:08:08;;;;;;;3.13;1.57;;;13.80;1.00;;;;;;5028317;28;20494;-85
2022/11/08 08:10:35;;;;;;;6.93;2.00;;;13.90;1.00;;;;;;5021663;28;20227;-81
2022/11/08 08:13:01;;;;;;;4.13;1.73;;;13.90;1.00;;;;;;5020764;28;20661;-84
2022/11/08 08:15:29;;;;;;;4.17;2.17;;;13.90;1.00;;;;;;5020218;28;20640;-85
2022/11/08 08:17:58;;;;;;;5.00;1.80;;;13.90;1.00;;;;;;5028322;28;20193;-84
2022/11/08 08:20:24;;;;;;;4.50;1.87;;;13.90;1.00;;;;;;5039322;28;20175;-82
2022/11/08 08:22:52;;;;;;;6.37;2.20;;;14.10;1.00;;;;;;5019899;28;20245;-83
2022/11/08 08:25:19;;;;;;;4.57;2.03;;;14.10;1.00;;;;;;5019675;28;20172;-85
2022/11/08 08:27:54;;;;;;;4.17;1.63;;;14.00;1.00;;;;;;5022321;28;20249;-86
2022/11/08 08:30:23;;;;;;;6.03;2.07;;;14.00;1.00;;;;;;5018597;28;20205;-86
2022/11/08 08:32:49;;;;;;;5.13;2.10;;;14.00;1.00;;;;;;5019206;28;20173;-82
2022/11/08 08:35:15;;;;;;;4.40;1.73;;;14.30;1.00;;;;;;5019301;28;20185;-81
2022/11/08 08:37:41;;;;;;;7.30;2.10;;;14.20;1.00;;;;;;5017526;28;20638;-83
2022/11/08 08:40:07;;;;;;;5.50;2.00;;;14.30;1.00;;;;;;5016791;28;20175;-85
2022/11/08 08:42:33;;;;;;;4.60;2.10;;;14.30;1.00;;;;;;5018939;28;20175;-84
2022/11/08 08:45:00;;;;;;;7.43;1.90;;;14.40;1.00;;;;;;5019859;28;20204;-84
2022/11/08 08:47:27;;;;;;;4.90;1.83;;;14.40;1.00;;;;;;5019019;28;20189;-87
2022/11/08 08:49:55;;;;;;;3.80;1.83;;;14.50;1.00;;;;;;5021206;28;20167;-83
2022/11/08 08:52:20;;;;;;;6.00;2.00;;;14.60;1.00;;;;;;5020198;28;20186;-84
2022/11/08 08:54:46;;;;;;;7.90;2.57;;;14.60;1.00;;;;;;5019630;28;20197;-85
2022/11/08 08:57:12;;;;;;;3.13;2.10;;;14.70;1.00;;;;;;5018480;28;20206;-85
2022/11/08 08:59:39;;;;;;;6.40;2.13;;;14.70;1.00;;;;;;5019577;28;20337;-84
2022/11/08 09:02:05;;;;;;;3.80;1.97;;;14.80;1.00;;;;;;5018235;28;20244;-82
2022/11/08 09:04:30;;;;;;;5.37;1.83;;;14.80;1.00;;;;;;5019570;28;20272;-85
2022/11/08 09:06:56;;;;;;;3.87;2.00;;;14.80;1.00;;;;;;5017025;28;20657;-85
2022/11/08 09:09:22;;;;;;;4.47;2.00;;;15.00;1.00;;;;;;5019783;28;20261;-84
2022/11/08 09:11:47;;;;;;;4.70;2.30;;;14.90;1.00;;;;;;5019738;28;20230;-81
2022/11/08 09:14:13;;;;;;;6.03;2.53;;;15.00;1.00;;;;;;5017531;28;20607;-81
2022/11/08 09:16:39;;;;;;;5.67;1.97;;;15.00;1.00;;;;;;5016245;28;20606;-85
2022/11/08 09:19:04;;;;;;;4.47;2.00;;;15.00;1.00;;;;;;5019340;28;20198;-83
2022/11/08 09:21:30;;;;;;;3.87;2.27;;;15.10;1.00;;;;;;5016419;28;20271;-85
2022/11/08 09:23:56;;;;;;;4.57;2.13;;;15.10;1.00;;;;;;5017765;28;20169;-83
2022/11/08 09:26:21;;;;;;;5.27;2.50;;;15.00;1.00;;;;;;5018002;28;20648;-84
2022/11/08 09:28:48;;;;;;;7.30;2.50;;;15.00;1.00;;;;;;5030788;28;20221;-83
2022/11/08 09:31:14;;;;;;;6.60;2.27;;;15.00;1.00;;;;;;5036333;28;20206;-80
2022/11/08 09:33:40;;;;;;;4.67;2.43;;;15.00;1.00;;;;;;5038035;28;20170;-82
2022/11/08 09:36:08;;;;;;;6.07;1.90;;;15.10;1.00;;;;;;5031390;28;20204;-83
2022/11/08 09:38:33;;;;;;;5.93;2.70;;;15.10;1.00;;;;;;5023586;28;20209;-83
2022/11/08 09:41:17;;;;;;;7.97;2.67;;;15.10;1.00;;;;;;5018191;28;20175;-85
2022/11/08 09:43:59;;;;;;;8.87;2.43;;;15.10;1.00;;;;;;5018393;28;20265;-85
2022/11/08 09:46:50;;;;;;;5.13;2.43;;;15.20;1.00;;;;;;5018854;28;20737;-83
2022/11/08 09:49:39;;;;;;;8.17;2.50;;;15.10;1.00;;;;;;5017094;28;20170;-84
2022/11/08 09:52:06;;;;;;;3.93;1.70;;;15.20;1.00;;;;;;5018249;28;20218;-83
2022/11/08 09:54:41;;;;;;;3.40;2.00;;;15.20;1.00;;;;;;5026914;28;20161;-84
2022/11/08 09:57:19;;;;;;;4.97;2.23;;;15.20;1.00;;;;;;5032839;28;20182;-84
2022/11/08 09:59:53;;;;;;;5.00;3.20;;;15.20;1.00;;;;;;5028448;28;20197;-84
2022/11/08 10:02:22;;;;;;;5.77;3.27;;;15.20;1.00;;;;;;5023027;28;20180;-84
2022/11/08 10:04:56;;;;;;;9.10;4.00;;;15.20;1.00;;;;;;5024472;28;20244;-84
2022/11/08 10:07:21;;;;;;;5.10;3.13;;;15.20;1.00;;;;;;5022814;28;20623;-83
2022/11/08 10:10:20;;;;;;;4.57;2.80;;;15.30;1.00;;;;;;5024993;28;20201;-84
2022/11/08 10:13:02;;;;;;;3.47;2.13;;;15.30;1.00;;;;;;5034197;28;20198;-81
2022/11/08 10:15:59;;;;;;;5.77;2.37;;;15.30;1.00;;;;;;5032899;28;20162;-81
2022/11/08 10:18:27;;;;;;;6.13;1.97;;;15.40;1.00;;;;;;5008336;28;20250;-83
2022/11/08 10:21:02;;;;;;;4.73;2.00;;;15.30;1.00;;;;;;5024959;28;20174;-85
2022/11/08 10:23:44;;;;;;;4.90;1.80;;;15.30;1.00;;;;;;5024690;28;20154;-84
2022/11/08 10:26:19;;;;;;;4.10;2.10;;;15.30;1.00;;;;;;5022910;28;20166;-85
2022/11/08 10:29:01;;;;;;;7.73;2.43;;;15.40;1.00;;;;;;5020544;28;20167;-82
2022/11/08 10:31:32;;;;;;;6.80;2.20;;;15.50;1.00;;;;;;5019929;28;20202;-84
2022/11/08 10:34:01;;;;;;;4.87;2.20;;;15.50;1.00;;;;;;5021992;28;20162;-85
2022/11/08 10:36:53;;;;;;;5.50;2.00;;;15.50;1.00;;;;;;5017954;28;20186;-84
2022/11/08 10:39:33;;;;;;;6.83;2.07;;;15.50;1.00;;;;;;5017144;28;20184;-84
2022/11/08 10:42:19;;;;;;;5.73;2.23;;;15.60;1.00;;;;;;5015238;28;20267;-85
2022/11/08 10:44:47;;;;;;;6.73;2.00;;;15.60;1.00;;;;;;5017156;28;20186;-85
2022/11/08 10:47:23;;;;;;;4.10;1.93;;;15.60;1.00;;;;;;5017231;28;20158;-81
2022/11/08 10:49:48;;;;;;;6.17;2.10;;;15.60;1.00;;;;;;5018837;28;20653;-82
2022/11/08 10:52:27;;;;;;;5.57;1.90;;;15.70;1.00;;;;;;5017126;28;20214;-86
2022/11/08 10:54:58;;;;;;;3.63;1.87;;;15.70;1.00;;;;;;5018397;28;20540;-83
2022/11/08 10:57:41;;;;;;;5.63;2.30;;;15.80;1.00;;;;;;5018227;28;20204;-85
2022/11/08 11:00:27;;;;;;;11.17;5.77;;;16.00;1.00;;;;;;5018669;28;20164;-82
2022/11/08 11:02:57;;;;;;;4.77;2.70;;;16.20;1.00;;;;;;5017273;28;20190;-81
2022/11/08 11:05:24;;;;;;;3.93;2.10;;;16.30;1.00;;;;;;5016806;28;20237;-85
2022/11/08 11:07:57;;;;;;;5.23;1.97;;;16.30;1.00;;;;;;5016827;28;20180;-84
2022/11/08 11:10:36;;;;;;;5.07;2.17;;;16.20;1.00;;;;;;5016578;28;20604;-82
2022/11/08 11:13:26;;;;;;;6.03;2.30;;;16.20;1.00;;;;;;4997457;28;20502;-84
2022/11/08 11:15:57;;;;;;;7.27;2.30;;;16.20;1.00;;;;;;4996930;28;20178;-80
2022/11/08 11:18:32;;;;;;;3.30;2.13;;;16.10;1.00;;;;;;5013235;28;20178;-82
2022/11/08 11:21:12;;;;;;;5.30;2.23;;;16.10;1.00;;;;;;5017623;28;20197;-83
2022/11/08 11:23:43;;;;;;;6.30;2.17;;;16.10;1.00;;;;;;5013498;28;20161;-80
2022/11/08 11:26:29;;;;;;;5.37;2.10;;;16.00;1.00;;;;;;5032733;28;20171;-79
2022/11/08 11:29:07;;;;;;;5.10;2.23;;;16.20;1.00;;;;;;5017777;28;20175;-80
2022/11/08 11:31:38;;;;;;;5.97;2.93;;;16.30;1.00;;;;;;5006694;28;20210;-80
2022/11/08 11:34:17;;;;;;;6.07;2.17;;;16.40;1.00;;;;;;5003910;28;20237;-80
2022/11/08 11:37:32;;;;;;;4.40;2.27;;;16.30;1.00;;;;;;5014110;28;20269;-83
2022/11/08 11:40:02;;;;;;;5.20;1.87;;;16.20;1.00;;;;;;4984618;28;20194;-82
2022/11/08 11:42:42;;;;;;;7.43;2.23;;;16.20;1.00;;;;;;5012887;28;20159;-81
2022/11/08 11:45:11;;;;;;;8.60;2.30;;;16.30;1.00;;;;;;4997045;28;20270;-83
2022/11/08 11:47:54;;;;;;;3.60;1.90;;;16.40;1.00;;;;;;5000197;28;20161;-84
2022/11/08 11:50:19;;;;;;;6.00;2.60;;;16.40;1.00;;;;;;4995768;28;20175;-83
2022/11/08 11:52:45;;;;;;;4.40;2.07;;;16.40;1.00;;;;;;4994196;28;20547;-83
2022/11/08 11:55:14;;;;;;;6.23;2.00;;;16.50;1.00;;;;;;4996462;28;20639;-82
2022/11/08 11:58:03;;;;;;;6.77;2.03;;;16.40;1.00;;;;;;4998710;28;20179;-82
2022/11/08 12:00:30;;;;;;;5.57;1.97;;;16.40;1.00;;;;;;4993920;28;20181;-83
2022/11/08 12:03:02;;;;;;;7.43;2.50;;;16.40;1.00;;;;;;4995181;28;20285;-82
2022/11/08 12:05:39;;;;;;;6.10;3.03;;;16.30;1.00;;;;;;5008826;28;20174;-85
2022/11/08 12:08:29;;;;;;;4.37;2.20;;;16.40;1.00;;;;;;4995317;28;20198;-84
2022/11/08 12:11:13;;;;;;;5.67;2.77;;;16.40;1.00;;;;;;4994606;28;20233;-84
2022/11/08 12:14:05;;;;;;;7.30;2.00;;;16.60;1.00;;;;;;4999542;28;20179;-84
2022/11/08 12:17:04;;;;;;;4.70;2.40;;;16.40;1.00;;;;;;5002112;28;20175;-83
2022/11/08 12:19:54;;;;;;;6.03;2.30;;;16.60;1.00;;;;;;4996535;28;20173;-81
2022/11/08 12:22:45;;;;;;;4.67;2.07;;;16.70;1.00;;;;;;5013518;28;20176;-81
2022/11/08 12:25:21;;;;;;;5.50;2.30;;;16.60;1.00;;;;;;5001827;28;20179;-82
2022/11/08 12:28:38;;;;;;;6.33;2.37;;;16.70;1.00;;;;;;5034185;28;20168;-85
2022/11/08 12:31:22;;;;;;;6.03;2.30;;;16.70;1.00;;;;;;4994564;28;20258;-83
2022/11/08 12:34:10;;;;;;;6.90;2.17;;;16.80;1.00;;;;;;5010284;28;20620;-83
2022/11/08 12:36:55;;;;;;;7.37;2.20;;;16.90;1.00;;;;;;5022238;28;20568;-83
2022/11/08 12:39:34;;;;;;;4.27;1.73;;;17.00;1.00;;;;;;4997947;28;20189;-81
2022/11/08 12:42:37;;;;;;;8.67;2.27;;;16.90;1.00;;;;;;4998764;28;20646;-82
2022/11/08 12:45:06;;;;;;;8.47;2.20;;;16.90;1.00;;;;;;4998274;28;20171;-84
2022/11/08 12:47:44;;;;;;;5.50;2.43;;;16.90;1.00;;;;;;5013473;28;20164;-84
2022/11/08 12:50:48;;;;;;;4.67;2.03;;;16.90;1.00;;;;;;5013936;28;20167;-82
2022/11/08 12:53:36;;;;;;;5.30;2.30;;;16.90;1.00;;;;;;4997527;28;20175;-82
2022/11/08 12:56:04;;;;;;;5.07;1.93;;;16.90;1.00;;;;;;5002542;28;20230;-84
2022/11/08 12:58:45;;;;;;;4.43;1.90;;;17.10;1.00;;;;;;5003220;28;20261;-83
2022/11/08 13:01:13;;;;;;;6.07;2.10;;;17.20;1.00;;;;;;4998786;28;20236;-84
2022/11/08 13:03:44;;;;;;;6.27;2.40;;;17.20;1.00;;;;;;4998068;28;20176;-81
2022/11/08 13:06:17;;;;;;;10.67;2.70;;;17.00;1.00;;;;;;5012896;28;20175;-84
2022/11/08 13:08:52;;;;;;;6.67;2.00;;;17.00;1.00;;;;;;4997486;28;20182;-82
2022/11/08 13:11:28;;;;;;;4.43;2.10;;;17.20;1.00;;;;;;5006016;28;20366;-80
2022/11/08 13:13:57;;;;;;;4.67;1.83;;;17.20;1.00;;;;;;5013801;28;20179;-84
2022/11/08 13:16:32;;;;;;;5.00;2.20;;;17.20;1.00;;;;;;5010016;28;20176;-83
2022/11/08 13:19:00;;;;;;;6.40;2.40;;;17.20;1.00;;;;;;5010915;28;20173;-80
2022/11/08 13:21:29;;;;;;;6.50;2.00;;;17.20;1.00;;;;;;5007891;28;20628;-82
2022/11/08 13:24:01;;;;;;;7.03;2.40;;;17.10;1.00;;;;;;5036075;28;20229;-81
2022/11/08 13:26:30;;;;;;;9.23;4.47;;;17.00;1.00;;;;;;5013513;28;20158;-83
2022/11/08 13:29:17;;;;;;;6.03;2.13;;;17.10;1.00;;;;;;5012586;28;20182;-82